Time;durP1;ratioP1;P1;durP2;ratioP2;P2;SDS_P1;SDS_P2;PMS_P1;PMS_P2;Temp;Humidity;BMP_temperature;BMP_pressure;BME280_temperature;BME280_humidity;BME280_pressure;Samples;Min_cycle;Max_cycle;Signal;HPM_P1;HPM_P2
2021/01/22 00:01:42;;;;;;;86.28;46.05;;;-0.20;97.40;;;;;;5155051;27;20397;-73
2021/01/22 00:04:08;;;;;;;88.45;46.20;;;-0.20;97.30;;;;;;5154392;27;20849;-73
2021/01/22 00:06:34;;;;;;;87.47;46.13;;;-0.20;97.20;;;;;;5115225;27;20927;-73
2021/01/22 00:09:03;;;;;;;88.30;45.60;;;-0.20;97.30;;;;;;5116043;27;20395;-73
2021/01/22 00:11:29;;;;;;;79.63;43.20;;;-0.20;97.40;;;;;;5145683;27;20401;-73
2021/01/22 00:13:58;;;;;;;75.03;40.75;;;-0.20;97.30;;;;;;5136152;27;20925;-73
2021/01/22 00:16:25;;;;;;;74.13;41.23;;;-0.20;97.10;;;;;;5133023;27;20401;-73
2021/01/22 00:18:52;;;;;;;72.03;40.78;;;-0.20;97.10;;;;;;5154460;27;20714;-73
2021/01/22 00:21:21;;;;;;;68.80;39.47;;;-0.20;97.10;;;;;;5132460;27;20401;-73
2021/01/22 00:23:50;;;;;;;71.90;41.15;;;-0.10;96.90;;;;;;5153928;27;20846;-73
2021/01/22 00:26:16;;;;;;;74.15;41.15;;;-0.10;96.80;;;;;;5150740;27;20485;-73
2021/01/22 00:28:43;;;;;;;70.40;40.72;;;-0.10;96.70;;;;;;5136021;27;20428;-73
2021/01/22 00:31:09;;;;;;;75.78;41.60;;;-0.10;96.50;;;;;;5131438;27;20450;-73
2021/01/22 00:33:38;;;;;;;73.75;41.53;;;0.00;96.60;;;;;;5153918;27;20401;-73
2021/01/22 00:36:04;;;;;;;74.28;42.38;;;-0.10;96.30;;;;;;5153855;27;20724;-73
2021/01/22 00:38:31;;;;;;;76.27;42.50;;;-0.20;96.50;;;;;;5132363;27;20482;-73
2021/01/22 00:41:22;;;;;;;77.38;42.22;;;-0.20;96.70;;;;;;5154106;27;20445;-73
2021/01/22 00:43:48;;;;;;;84.32;44.30;;;-0.20;96.90;;;;;;5113459;27;20704;-73
2021/01/22 00:46:14;;;;;;;83.75;45.17;;;-0.20;96.90;;;;;;5126827;27;20877;-73
2021/01/22 00:48:41;;;;;;;91.32;47.00;;;-0.20;97.00;;;;;;5150505;27;20741;-73
2021/01/22 00:51:09;;;;;;;86.90;45.97;;;-0.20;97.00;;;;;;5135724;27;20477;-72
2021/01/22 00:53:39;;;;;;;87.15;45.28;;;-0.20;97.00;;;;;;5119531;27;20827;-74
2021/01/22 00:56:06;;;;;;;96.85;48.13;;;-0.10;96.80;;;;;;5132641;27;20411;-73
2021/01/22 00:58:33;;;;;;;93.97;47.00;;;-0.10;96.90;;;;;;5121253;27;20420;-73
2021/01/22 01:01:02;;;;;;;99.35;48.90;;;-0.10;97.10;;;;;;5135481;27;20404;-73
2021/01/22 01:03:33;;;;;;;105.72;50.67;;;-0.20;97.20;;;;;;5132316;27;20744;-73
2021/01/22 01:06:02;;;;;;;112.95;51.90;;;-0.20;97.40;;;;;;5153130;27;20452;-73
2021/01/22 01:08:30;;;;;;;107.47;50.65;;;-0.10;97.40;;;;;;5149991;27;20793;-73
2021/01/22 01:10:57;;;;;;;115.85;51.60;;;-0.10;97.10;;;;;;5135108;27;20400;-73
2021/01/22 01:13:23;;;;;;;108.57;50.20;;;-0.10;97.10;;;;;;5132620;27;20397;-73
2021/01/22 01:15:52;;;;;;;111.88;52.38;;;-0.20;97.40;;;;;;5152197;27;20417;-73
2021/01/22 01:18:23;;;;;;;113.68;52.25;;;-0.20;97.50;;;;;;5135320;27;20401;-73
2021/01/22 01:20:52;;;;;;;102.50;49.63;;;-0.20;97.60;;;;;;5169008;27;20403;-73
2021/01/22 01:23:19;;;;;;;104.85;49.78;;;-0.20;97.40;;;;;;5160366;27;20468;-73
2021/01/22 01:25:46;;;;;;;92.90;47.63;;;-0.20;97.50;;;;;;5131379;27;20481;-73
2021/01/22 01:28:12;;;;;;;93.75;47.22;;;-0.20;97.50;;;;;;5152945;27;20767;-73
2021/01/22 01:30:38;;;;;;;89.67;46.37;;;-0.30;97.50;;;;;;5149552;27;20413;-73
2021/01/22 01:33:05;;;;;;;88.53;46.17;;;-0.30;97.50;;;;;;5134695;27;20405;-73
2021/01/22 01:35:32;;;;;;;85.15;45.47;;;-0.30;97.30;;;;;;5141699;27;20409;-73
2021/01/22 01:37:58;;;;;;;89.80;46.88;;;-0.30;97.40;;;;;;5131769;27;20398;-73
2021/01/22 01:40:27;;;;;;;100.28;48.20;;;-0.30;97.30;;;;;;5115999;27;20871;-73
2021/01/22 01:42:53;;;;;;;96.40;48.03;;;-0.30;97.30;;;;;;5133877;27;20455;-73
2021/01/22 01:45:20;;;;;;;98.95;47.67;;;-0.20;97.50;;;;;;5149223;27;20449;-73
2021/01/22 01:47:46;;;;;;;104.23;50.13;;;-0.20;97.30;;;;;;5152263;27;20412;-73
2021/01/22 01:50:13;;;;;;;92.30;47.17;;;-0.30;97.30;;;;;;5152412;27;20795;-73
2021/01/22 01:52:40;;;;;;;96.88;48.45;;;-0.20;97.50;;;;;;5149449;27;20397;-73
2021/01/22 01:55:08;;;;;;;94.78;48.25;;;-0.20;97.40;;;;;;5130440;27;20415;-73
2021/01/22 01:57:35;;;;;;;96.03;48.50;;;-0.20;97.40;;;;;;5127214;27;20894;-73
2021/01/22 02:00:03;;;;;;;107.20;52.55;;;-0.20;97.40;;;;;;5130478;27;20386;-73
2021/01/22 02:02:30;;;;;;;106.60;51.55;;;-0.20;97.40;;;;;;5127438;27;20862;-73
2021/01/22 02:04:58;;;;;;;103.70;50.78;;;-0.20;97.50;;;;;;5130667;27;20486;-73
2021/01/22 02:07:24;;;;;;;105.38;50.42;;;-0.20;97.50;;;;;;5126510;27;20430;-73
2021/01/22 02:09:51;;;;;;;110.85;53.03;;;-0.20;97.60;;;;;;5129953;27;20463;-73
2021/01/22 02:12:18;;;;;;;122.67;55.40;;;-0.20;97.70;;;;;;5126599;27;20452;-73
2021/01/22 02:14:48;;;;;;;117.63;54.28;;;-0.20;97.70;;;;;;5130013;27;20403;-74
2021/01/22 02:17:14;;;;;;;113.57;53.33;;;-0.20;97.80;;;;;;5128038;27;20422;-73
2021/01/22 02:20:03;;;;;;;114.65;52.65;;;-0.20;97.80;;;;;;5131408;27;20983;-73
2021/01/22 02:22:33;;;;;;;117.37;53.73;;;-0.20;97.80;;;;;;5126943;27;21355;-73
2021/01/22 02:25:03;;;;;;;113.93;53.88;;;-0.20;97.70;;;;;;5131148;27;20423;-73
2021/01/22 02:27:32;;;;;;;112.78;52.53;;;-0.20;97.80;;;;;;5129335;27;20422;-73
2021/01/22 02:30:01;;;;;;;109.20;51.60;;;-0.10;97.80;;;;;;5130372;27;20773;-73
2021/01/22 02:32:28;;;;;;;102.83;49.17;;;-0.20;97.80;;;;;;5130479;27;20711;-73
2021/01/22 02:35:00;;;;;;;109.35;50.97;;;-0.20;97.60;;;;;;5127729;27;20827;-73
2021/01/22 02:37:27;;;;;;;104.45;50.70;;;-0.20;97.70;;;;;;5131288;27;20777;-73
2021/01/22 02:39:58;;;;;;;111.05;51.58;;;-0.20;97.80;;;;;;5126853;27;21201;-73
2021/01/22 02:42:28;;;;;;;105.68;50.78;;;-0.20;97.80;;;;;;5130464;28;20434;-73
2021/01/22 02:44:55;;;;;;;112.32;51.53;;;-0.20;97.80;;;;;;5127723;27;20397;-73
2021/01/22 02:47:26;;;;;;;122.53;53.50;;;-0.10;97.60;;;;;;5130662;28;20908;-73
2021/01/22 02:49:55;;;;;;;118.32;51.83;;;-0.10;97.50;;;;;;5126717;27;20402;-73
2021/01/22 02:52:21;;;;;;;117.47;51.67;;;-0.20;97.70;;;;;;5130861;28;20397;-73
2021/01/22 02:54:52;;;;;;;118.50;53.80;;;-0.20;97.70;;;;;;5131556;27;20405;-73
2021/01/22 02:57:39;;;;;;;123.45;54.22;;;-0.20;97.70;;;;;;5137844;27;20404;-73
2021/01/22 03:00:40;;;;;;;119.07;52.90;;;-0.30;97.90;;;;;;5152591;27;20405;-73
2021/01/22 03:03:15;;;;;;;118.65;53.70;;;-0.20;98.00;;;;;;5155905;27;20396;-73
2021/01/22 03:05:45;;;;;;;118.00;54.03;;;-0.20;98.00;;;;;;5134246;27;20400;-73
2021/01/22 03:08:18;;;;;;;121.85;55.38;;;-0.20;97.90;;;;;;5155490;27;20774;-73
2021/01/22 03:10:47;;;;;;;123.05;55.40;;;-0.20;97.80;;;;;;5152407;27;20397;-73
2021/01/22 03:13:14;;;;;;;117.63;55.00;;;-0.20;97.80;;;;;;5155597;27;20474;-73
2021/01/22 03:15:43;;;;;;;114.47;53.63;;;-0.10;97.90;;;;;;5151702;27;20465;-73
2021/01/22 03:18:10;;;;;;;118.15;51.90;;;-0.10;97.90;;;;;;5137635;27;20404;-73
2021/01/22 03:20:36;;;;;;;107.07;51.13;;;0.00;97.70;;;;;;5133832;27;20447;-73
2021/01/22 03:23:03;;;;;;;120.30;54.38;;;0.10;97.10;;;;;;5137079;27;20444;-73
2021/01/22 03:25:31;;;;;;;123.03;54.78;;;0.00;97.10;;;;;;5137171;27;20392;-73
2021/01/22 03:28:02;;;;;;;121.43;54.35;;;-0.10;97.40;;;;;;5133557;27;20433;-73
2021/01/22 03:30:31;;;;;;;118.93;53.72;;;-0.10;97.60;;;;;;5137315;27;20389;-73
2021/01/22 03:32:58;;;;;;;121.07;54.37;;;-0.10;97.70;;;;;;5152204;27;20396;-73
2021/01/22 03:35:25;;;;;;;124.95;54.63;;;-0.10;97.80;;;;;;5155308;27;20397;-73
2021/01/22 03:37:51;;;;;;;127.38;56.10;;;-0.10;97.90;;;;;;5151535;27;20481;-73
2021/01/22 03:40:18;;;;;;;124.90;55.78;;;-0.10;97.90;;;;;;5154874;27;20409;-73
2021/01/22 03:42:48;;;;;;;119.28;55.45;;;0.00;98.00;;;;;;5151625;27;20452;-73
2021/01/22 03:45:15;;;;;;;120.53;55.15;;;0.00;97.70;;;;;;5136862;27;20465;-73
2021/01/22 03:47:45;;;;;;;115.60;54.88;;;0.00;97.80;;;;;;5151483;27;20457;-73
2021/01/22 03:50:12;;;;;;;119.05;53.75;;;0.00;97.80;;;;;;5154619;27;20904;-73
2021/01/22 03:52:39;;;;;;;117.20;54.20;;;0.10;97.70;;;;;;5151402;27;20844;-73
2021/01/22 03:55:07;;;;;;;109.43;53.47;;;0.10;97.40;;;;;;5154420;27;20427;-73
2021/01/22 03:57:33;;;;;;;110.27;53.53;;;0.00;97.50;;;;;;5154820;27;20438;-73
2021/01/22 04:00:02;;;;;;;110.13;52.67;;;0.00;97.50;;;;;;5134561;27;20433;-72
2021/01/22 04:02:29;;;;;;;112.57;53.23;;;0.00;97.60;;;;;;5154497;27;20431;-73
2021/01/22 04:04:56;;;;;;;104.05;51.53;;;0.00;97.60;;;;;;5151155;27;20420;-73
2021/01/22 04:07:22;;;;;;;108.10;51.65;;;0.00;97.50;;;;;;5136280;27;20421;-73
2021/01/22 04:09:49;;;;;;;123.07;54.67;;;0.00;97.50;;;;;;5150964;27;20465;-73
2021/01/22 04:12:18;;;;;;;132.57;57.78;;;0.20;97.60;;;;;;5136379;27;20416;-73
2021/01/22 04:14:44;;;;;;;124.07;56.88;;;0.20;97.00;;;;;;5122472;27;20460;-73
2021/01/22 04:17:11;;;;;;;125.63;56.78;;;0.10;97.30;;;;;;5133791;27;20900;-73
2021/01/22 04:19:39;;;;;;;127.45;56.70;;;0.10;97.40;;;;;;5137448;27;20458;-73
2021/01/22 04:22:06;;;;;;;124.72;57.25;;;0.00;97.60;;;;;;5154046;27;20418;-73
2021/01/22 04:24:35;;;;;;;130.38;58.22;;;0.00;97.70;;;;;;5154104;27;20392;-73
2021/01/22 04:27:01;;;;;;;119.40;55.28;;;0.00;97.70;;;;;;5154349;27;20425;-73
2021/01/22 04:29:30;;;;;;;114.00;53.30;;;0.10;97.60;;;;;;5154111;27;20424;-73
2021/01/22 04:31:56;;;;;;;122.93;55.28;;;0.20;97.40;;;;;;5154125;27;20866;-73
2021/01/22 04:34:23;;;;;;;125.97;57.10;;;0.10;97.40;;;;;;5154323;27;20526;-73
2021/01/22 04:36:51;;;;;;;122.07;55.83;;;0.10;97.50;;;;;;5154301;27;20449;-73
2021/01/22 04:39:18;;;;;;;114.33;54.27;;;0.10;97.70;;;;;;5136199;27;20454;-73
2021/01/22 04:41:45;;;;;;;114.70;53.90;;;0.10;97.70;;;;;;5154219;27;20774;-73
2021/01/22 04:44:14;;;;;;;116.87;54.67;;;0.30;97.50;;;;;;5135615;27;20401;-73
2021/01/22 04:46:42;;;;;;;118.28;55.00;;;0.20;97.40;;;;;;5135777;27;20447;-73
2021/01/22 04:49:15;;;;;;;114.53;54.75;;;0.20;97.50;;;;;;5135980;27;20773;-73
2021/01/22 04:51:42;;;;;;;114.95;54.58;;;0.20;97.50;;;;;;5135711;27;20842;-73
2021/01/22 04:54:12;;;;;;;114.78;53.97;;;0.20;97.40;;;;;;5153853;27;20393;-73
2021/01/22 04:56:49;;;;;;;112.15;53.00;;;0.20;97.60;;;;;;5153454;27;20516;-73
2021/01/22 04:59:24;;;;;;;108.07;51.75;;;0.30;97.60;;;;;;5153394;27;20790;-73
2021/01/22 05:01:52;;;;;;;100.80;51.13;;;0.20;97.60;;;;;;5135971;27;20397;-73
2021/01/22 05:04:19;;;;;;;98.68;50.13;;;0.30;97.50;;;;;;5153747;27;20405;-73
2021/01/22 05:06:48;;;;;;;97.17;49.13;;;0.40;97.50;;;;;;5153563;27;20925;-73
2021/01/22 05:09:16;;;;;;;93.97;48.50;;;0.30;97.20;;;;;;5135452;27;20485;-73
2021/01/22 05:11:45;;;;;;;88.10;46.55;;;0.30;97.10;;;;;;5154072;27;20409;-73
2021/01/22 05:14:14;;;;;;;87.13;46.15;;;0.30;97.20;;;;;;5153467;27;20413;-74
2021/01/22 05:17:04;;;;;;;80.57;44.65;;;0.30;97.10;;;;;;5135064;27;20397;-73
2021/01/22 05:19:31;;;;;;;75.38;42.67;;;0.30;96.80;;;;;;5152893;27;20412;-73
2021/01/22 05:22:00;;;;;;;71.95;41.33;;;0.30;96.70;;;;;;5153617;27;20443;-73
2021/01/22 05:24:31;;;;;;;73.28;40.78;;;0.30;96.30;;;;;;5135190;27;20388;-74
2021/01/22 05:26:59;;;;;;;70.93;40.17;;;0.40;96.30;;;;;;5153305;27;20509;-74
2021/01/22 05:29:29;;;;;;;68.40;40.83;;;0.30;96.10;;;;;;5135597;27;20837;-74
2021/01/22 05:31:59;;;;;;;64.75;38.53;;;0.30;96.20;;;;;;5135334;27;20488;-73
2021/01/22 05:34:46;;;;;;;65.43;39.35;;;0.30;95.90;;;;;;5134983;27;20409;-73
2021/01/22 05:37:13;;;;;;;63.67;37.88;;;0.30;96.00;;;;;;5152977;27;20412;-73
2021/01/22 05:39:44;;;;;;;66.93;38.42;;;0.30;96.20;;;;;;5153449;27;20762;-73
2021/01/22 05:42:12;;;;;;;62.10;36.58;;;0.20;96.20;;;;;;5135142;27;20405;-73
2021/01/22 05:44:55;;;;;;;58.80;36.27;;;0.30;96.20;;;;;;5135081;27;20400;-73
2021/01/22 05:47:23;;;;;;;58.75;35.78;;;0.20;96.00;;;;;;5153083;27;20795;-73
2021/01/22 05:50:00;;;;;;;55.45;34.03;;;0.20;96.00;;;;;;5134204;27;20432;-73
2021/01/22 05:52:29;;;;;;;54.00;33.60;;;0.20;95.80;;;;;;5153009;27;20853;-74
2021/01/22 05:54:56;;;;;;;52.85;33.47;;;0.20;95.80;;;;;;5151925;27;20408;-73
2021/01/22 05:57:27;;;;;;;56.87;34.00;;;0.20;95.70;;;;;;5133973;27;20419;-73
2021/01/22 06:00:14;;;;;;;56.13;34.90;;;0.10;95.90;;;;;;5152641;27;20485;-72
2021/01/22 06:02:42;;;;;;;58.23;35.70;;;0.20;96.00;;;;;;5134123;27;20520;-72
2021/01/22 06:05:16;;;;;;;62.20;36.78;;;0.20;95.90;;;;;;5152118;27;20991;-72
2021/01/22 06:07:46;;;;;;;58.00;35.72;;;0.20;96.20;;;;;;5151801;27;20421;-72
2021/01/22 06:10:22;;;;;;;60.65;37.05;;;0.20;95.80;;;;;;5152123;27;20553;-72
2021/01/22 06:12:53;;;;;;;62.17;37.45;;;0.20;96.10;;;;;;5151983;27;20433;-72
2021/01/22 06:15:22;;;;;;;60.47;37.67;;;0.10;96.30;;;;;;5152077;27;20395;-73
2021/01/22 06:17:52;;;;;;;60.47;36.38;;;0.20;96.50;;;;;;5134049;27;20392;-72
2021/01/22 06:20:22;;;;;;;61.47;36.65;;;0.10;96.30;;;;;;5151947;27;20393;-72
2021/01/22 06:23:11;;;;;;;61.92;37.63;;;0.20;96.30;;;;;;5151287;27;20408;-72
2021/01/22 06:25:42;;;;;;;63.05;37.25;;;0.20;96.40;;;;;;5151875;27;20401;-72
2021/01/22 06:28:12;;;;;;;61.67;36.85;;;0.20;96.40;;;;;;5133445;27;20444;-72
2021/01/22 06:30:45;;;;;;;68.23;39.07;;;0.20;96.40;;;;;;5150580;27;20400;-72
2021/01/22 06:33:11;;;;;;;67.72;38.70;;;0.20;96.60;;;;;;5151368;27;20484;-72
2021/01/22 06:35:39;;;;;;;63.50;38.22;;;0.20;96.60;;;;;;5151984;27;20478;-72
2021/01/22 06:38:08;;;;;;;62.65;36.67;;;0.20;96.70;;;;;;5150607;27;20435;-72
2021/01/22 06:40:37;;;;;;;55.85;34.70;;;0.30;96.70;;;;;;5151613;27;20461;-72
2021/01/22 06:43:03;;;;;;;56.35;34.67;;;0.50;96.10;;;;;;5133897;27;20480;-72
2021/01/22 06:45:30;;;;;;;52.28;32.83;;;0.50;96.10;;;;;;5151795;27;20408;-72
2021/01/22 06:48:00;;;;;;;55.78;34.33;;;0.60;95.90;;;;;;5133630;27;20417;-72
2021/01/22 06:50:29;;;;;;;64.20;37.63;;;0.60;95.70;;;;;;5133612;27;20404;-72
2021/01/22 06:53:11;;;;;;;68.50;38.35;;;0.70;96.10;;;;;;5133730;27;20393;-72
2021/01/22 06:55:53;;;;;;;68.43;38.03;;;0.70;96.10;;;;;;5151360;27;20456;-73
2021/01/22 06:58:30;;;;;;;63.23;37.47;;;0.70;96.40;;;;;;5132958;27;20431;-73
2021/01/22 07:01:02;;;;;;;64.43;37.60;;;0.70;96.10;;;;;;5148527;27;20461;-72
2021/01/22 07:03:38;;;;;;;65.85;36.63;;;0.70;96.00;;;;;;5130970;28;20444;-72
2021/01/22 07:06:30;;;;;;;61.75;37.08;;;0.70;96.60;;;;;;5113120;28;20406;-72
2021/01/22 07:09:01;;;;;;;65.90;38.50;;;0.80;96.00;;;;;;5112915;28;20467;-72
2021/01/22 07:12:03;;;;;;;63.22;38.13;;;0.80;96.00;;;;;;5135491;27;20821;-72
2021/01/22 07:14:40;;;;;;;60.42;36.15;;;0.70;95.90;;;;;;5031205;28;20727;-71
2021/01/22 07:17:18;;;;;;;61.63;36.83;;;0.80;96.20;;;;;;5138479;27;20501;-71
2021/01/22 07:19:55;;;;;;;63.28;37.97;;;0.90;96.00;;;;;;5113083;28;20425;-71
2021/01/22 07:22:21;;;;;;;62.78;38.08;;;0.90;95.80;;;;;;5113287;28;20498;-72
2021/01/22 07:24:50;;;;;;;59.55;35.92;;;0.90;96.00;;;;;;5134955;27;20469;-72
2021/01/22 07:27:17;;;;;;;60.97;35.85;;;0.90;95.90;;;;;;5138471;27;20477;-72
2021/01/22 07:30:09;;;;;;;59.50;36.60;;;0.90;96.10;;;;;;5113123;28;20398;-71
2021/01/22 07:32:37;;;;;;;59.55;36.55;;;0.90;96.20;;;;;;5149021;27;20415;-71
2021/01/22 07:35:09;;;;;;;59.73;36.07;;;0.90;96.10;;;;;;5114017;27;20851;-71
2021/01/22 07:37:38;;;;;;;59.55;36.28;;;0.90;96.10;;;;;;5111596;28;20426;-71
2021/01/22 07:40:10;;;;;;;59.70;36.20;;;1.00;96.30;;;;;;5130102;27;20451;-71
2021/01/22 07:42:37;;;;;;;61.58;37.05;;;1.00;95.90;;;;;;5136421;27;20416;-71
2021/01/22 07:45:13;;;;;;;61.40;37.50;;;1.10;96.10;;;;;;5136845;27;20801;-72
2021/01/22 07:47:45;;;;;;;60.05;36.20;;;1.00;96.00;;;;;;5137283;27;20428;-70
2021/01/22 07:50:17;;;;;;;63.67;37.33;;;1.00;96.10;;;;;;5153479;27;20416;-71
2021/01/22 07:52:48;;;;;;;58.95;37.83;;;1.00;96.10;;;;;;5155461;27;20482;-70
2021/01/22 07:55:23;;;;;;;64.68;38.65;;;1.00;96.20;;;;;;5154356;27;20413;-71
2021/01/22 07:58:07;;;;;;;62.78;38.65;;;1.10;96.20;;;;;;5160532;27;20565;-72
2021/01/22 08:00:40;;;;;;;64.25;38.22;;;1.10;96.10;;;;;;5136275;27;20764;-72
2021/01/22 08:03:13;;;;;;;57.63;36.60;;;1.20;96.00;;;;;;5148220;27;20500;-72
2021/01/22 08:05:43;;;;;;;59.90;37.13;;;1.20;96.00;;;;;;5154294;27;20424;-72
2021/01/22 08:08:20;;;;;;;56.78;35.95;;;1.30;96.00;;;;;;5149921;27;20738;-71
2021/01/22 08:10:47;;;;;;;54.17;33.77;;;1.30;96.10;;;;;;5132948;27;20621;-73
2021/01/22 08:13:16;;;;;;;59.38;34.72;;;1.40;95.60;;;;;;5146874;27;20417;-72
2021/01/22 08:15:44;;;;;;;54.95;35.42;;;1.40;95.70;;;;;;5127791;27;21225;-72
2021/01/22 08:18:15;;;;;;;53.50;34.10;;;1.50;95.70;;;;;;5152630;27;20408;-72
2021/01/22 08:20:51;;;;;;;54.33;33.42;;;1.50;95.50;;;;;;5121092;27;20676;-72
2021/01/22 08:23:20;;;;;;;54.60;33.07;;;1.60;95.30;;;;;;5141077;27;20409;-72
2021/01/22 08:25:47;;;;;;;52.50;32.42;;;1.90;94.90;;;;;;5132688;27;20820;-72
2021/01/22 08:28:14;;;;;;;52.70;32.63;;;2.10;94.50;;;;;;5153726;27;20829;-72
2021/01/22 08:30:41;;;;;;;53.05;33.40;;;2.10;94.40;;;;;;5150995;27;20405;-73
2021/01/22 08:33:07;;;;;;;48.80;30.75;;;2.20;94.00;;;;;;5153193;27;20470;-72
2021/01/22 08:35:34;;;;;;;46.28;30.73;;;2.40;93.30;;;;;;5150493;27;20411;-73
2021/01/22 08:38:01;;;;;;;46.65;30.40;;;2.50;93.20;;;;;;5135743;27;20407;-72
2021/01/22 08:40:43;;;;;;;48.65;30.92;;;2.70;92.70;;;;;;5150613;27;20753;-72
2021/01/22 08:43:12;;;;;;;48.55;31.02;;;2.60;93.10;;;;;;5132701;27;20441;-73
2021/01/22 08:45:40;;;;;;;48.58;30.13;;;2.50;93.20;;;;;;5153054;27;20413;-72
2021/01/22 08:48:10;;;;;;;49.30;31.40;;;2.30;93.20;;;;;;5131882;27;20428;-72
2021/01/22 08:50:39;;;;;;;47.00;29.67;;;2.40;93.40;;;;;;5135107;27;20849;-72
2021/01/22 08:53:10;;;;;;;45.30;29.45;;;2.50;93.30;;;;;;5113416;27;20455;-72
2021/01/22 08:55:38;;;;;;;47.13;30.15;;;2.60;93.00;;;;;;5132711;27;20434;-73
2021/01/22 08:58:10;;;;;;;46.75;30.63;;;2.50;92.80;;;;;;5143844;27;20413;-72
2021/01/22 09:00:37;;;;;;;46.42;30.08;;;2.50;93.10;;;;;;5153425;27;20428;-72
2021/01/22 09:03:21;;;;;;;46.47;29.25;;;2.60;93.00;;;;;;5147464;27;20897;-72
2021/01/22 09:05:52;;;;;;;44.83;27.70;;;2.80;93.30;;;;;;5133809;27;20790;-72
2021/01/22 09:08:20;;;;;;;43.60;28.20;;;3.10;92.70;;;;;;5130835;27;20936;-72
2021/01/22 09:10:49;;;;;;;40.95;27.33;;;3.20;92.30;;;;;;5153343;27;20718;-73
2021/01/22 09:13:24;;;;;;;41.25;27.58;;;3.40;92.30;;;;;;5125423;27;20572;-72
2021/01/22 09:16:06;;;;;;;40.40;26.88;;;3.60;92.10;;;;;;5153206;27;20739;-73
2021/01/22 09:18:33;;;;;;;40.72;26.98;;;3.90;91.60;;;;;;5149693;27;20749;-73
2021/01/22 09:21:04;;;;;;;39.10;25.70;;;4.00;91.10;;;;;;5152935;27;20397;-73
2021/01/22 09:23:31;;;;;;;39.65;26.17;;;4.20;90.70;;;;;;5123333;27;20949;-73
2021/01/22 09:26:01;;;;;;;40.40;26.75;;;4.20;90.80;;;;;;5114405;27;20798;-73
2021/01/22 09:28:28;;;;;;;41.95;28.23;;;4.30;91.00;;;;;;5112767;27;20428;-73
2021/01/22 09:30:54;;;;;;;45.15;29.13;;;4.40;90.60;;;;;;5133551;27;20846;-73
2021/01/22 09:33:23;;;;;;;43.35;28.67;;;4.60;90.70;;;;;;5151926;27;20792;-72
2021/01/22 09:35:54;;;;;;;42.50;28.73;;;4.80;90.00;;;;;;5150242;27;20400;-71
2021/01/22 09:38:21;;;;;;;46.63;30.67;;;5.00;89.70;;;;;;5151551;27;20451;-71
2021/01/22 09:40:49;;;;;;;49.50;31.50;;;5.20;88.20;;;;;;5130958;27;20393;-73
2021/01/22 09:43:17;;;;;;;51.35;32.42;;;5.40;88.30;;;;;;5134652;27;20393;-71
2021/01/22 09:45:44;;;;;;;50.72;32.42;;;5.50;87.20;;;;;;5149419;27;20468;-71
2021/01/22 09:48:14;;;;;;;;;;;5.70;86.80;;;;;;5134613;27;20424;-72
2021/01/22 09:50:42;;;;;;;;;;;5.90;86.50;;;;;;5150746;27;20273;-71
2021/01/22 09:53:09;;;;;;;;;;;6.10;85.00;;;;;;5154831;27;19927;-72
2021/01/22 09:55:50;;;;;;;;;;;6.40;84.00;;;;;;5133949;27;19923;-71
2021/01/22 09:58:19;;;;;;;;;;;6.80;82.50;;;;;;5154110;27;19919;-72
2021/01/22 10:00:47;;;;;;;;;;;7.10;81.20;;;;;;5150534;27;20608;-72
2021/01/22 10:03:13;;;;;;;;;;;7.50;79.30;;;;;;5135472;27;19930;-72
2021/01/22 10:05:42;;;;;;;;;;;8.30;76.60;;;;;;5132674;27;20009;-72
2021/01/22 10:08:08;;;;;;;;;;;9.50;71.60;;;;;;5133342;27;19926;-71
2021/01/22 10:10:34;;;;;;;;;;;10.70;67.40;;;;;;5150456;27;19919;-72
2021/01/22 10:13:03;;;;;;;;;;;11.90;62.30;;;;;;5152920;27;19941;-72
2021/01/22 10:15:30;;;;;;;;;;;12.80;59.30;;;;;;5153607;27;19978;-72
2021/01/22 10:17:56;;;;;;;;;;;13.60;55.70;;;;;;5131432;27;19919;-72
2021/01/22 10:20:25;;;;;;;;;;;14.20;54.00;;;;;;5153626;27;20247;-72
2021/01/22 10:22:51;;;;;;;;;;;14.50;52.90;;;;;;5150090;27;19919;-72
2021/01/22 10:25:19;;;;;;;;;;;14.90;51.90;;;;;;5153664;27;19923;-72
2021/01/22 10:27:46;;;;;;;;;;;15.10;49.50;;;;;;5149539;27;20104;-72
2021/01/22 10:30:12;;;;;;;;;;;15.40;49.40;;;;;;5135830;27;20286;-72
2021/01/22 10:32:39;;;;;;;;;;;15.70;48.70;;;;;;5135049;27;20308;-72
2021/01/22 10:35:05;;;;;;;;;;;16.20;49.00;;;;;;5135791;27;20007;-73
2021/01/22 10:37:32;;;;;;;;;;;16.20;46.60;;;;;;5150354;27;19919;-72
2021/01/22 10:39:59;;;;;;;;;;;16.20;45.50;;;;;;5135314;27;20019;-72
2021/01/22 10:42:27;;;;;;;;;;;16.00;46.60;;;;;;5131329;27;19919;-73
2021/01/22 10:44:54;;;;;;;;;;;16.00;47.10;;;;;;5153358;27;19919;-73
2021/01/22 10:47:20;;;;;;;;;;;16.30;48.10;;;;;;5135457;27;19922;-72
2021/01/22 10:49:57;;;;;;;;;;;16.80;46.90;;;;;;5130971;27;20343;-73
2021/01/22 10:52:24;;;;;;;;;;;17.50;43.80;;;;;;5132602;28;19920;-73
2021/01/22 10:54:50;;;;;;;;;;;17.80;42.60;;;;;;5126957;27;20002;-73
2021/01/22 10:57:16;;;;;;;;;;;18.20;42.50;;;;;;5135442;27;19927;-73
2021/01/22 10:59:45;;;;;;;;;;;18.50;42.10;;;;;;5130811;27;19945;-73
2021/01/22 11:02:11;;;;;;;;;;;18.80;41.30;;;;;;5134923;27;20363;-73
2021/01/22 11:04:41;;;;;;;;;;;18.70;40.80;;;;;;5131606;27;19976;-73
2021/01/22 11:07:11;;;;;;;;;;;19.40;38.70;;;;;;5152871;27;19934;-73
2021/01/22 11:09:38;;;;;;;;;;;19.20;39.00;;;;;;5131707;27;19926;-73
2021/01/22 11:12:04;;;;;;;;;;;19.10;39.10;;;;;;5153131;27;20007;-73
2021/01/22 11:14:30;;;;;;;;;;;19.60;39.00;;;;;;5150177;27;19983;-73
2021/01/22 11:16:59;;;;;;;;;;;20.00;38.20;;;;;;5137775;27;19976;-73
2021/01/22 11:19:30;;;;;;;;;;;20.30;38.00;;;;;;5136790;27;19923;-73
2021/01/22 11:21:59;;;;;;;;;;;20.80;37.00;;;;;;5134885;27;19923;-73
2021/01/22 11:24:25;;;;;;;;;;;21.40;36.30;;;;;;5135460;27;19927;-73
2021/01/22 11:26:55;;;;;;;;;;;21.70;35.20;;;;;;5151868;27;19919;-73
2021/01/22 11:29:21;;;;;;;;;;;22.00;34.40;;;;;;5149502;27;20371;-73
2021/01/22 11:31:49;;;;;;;;;;;22.40;33.90;;;;;;5152829;27;19966;-73
2021/01/22 11:34:16;;;;;;;;;;;22.40;32.50;;;;;;5160379;27;19941;-73
2021/01/22 11:36:42;;;;;;;;;;;22.40;33.70;;;;;;5162654;27;19919;-73
2021/01/22 11:39:08;;;;;;;;;;;22.40;33.70;;;;;;5139332;27;19984;-73
2021/01/22 11:41:35;;;;;;;;;;;22.50;34.80;;;;;;5135333;27;19930;-73
2021/01/22 11:44:03;;;;;;;;;;;22.20;33.30;;;;;;5157650;27;19970;-73
2021/01/22 11:46:30;;;;;;;;;;;22.20;34.10;;;;;;5153662;27;20027;-73
2021/01/22 11:48:56;;;;;;;;;;;22.10;33.60;;;;;;5139183;27;19950;-73
2021/01/22 11:51:22;;;;;;;;;;;22.10;34.20;;;;;;5134834;27;20300;-73
2021/01/22 11:53:49;;;;;;;;;;;22.60;33.70;;;;;;5157188;27;19926;-73
2021/01/22 11:56:15;;;;;;;;;;;23.00;32.90;;;;;;5138553;27;19956;-73
2021/01/22 11:58:41;;;;;;;;;;;23.10;32.50;;;;;;5134644;27;19923;-73
2021/01/22 12:01:10;;;;;;;;;;;23.50;31.80;;;;;;5138899;27;19958;-73
2021/01/22 12:03:36;;;;;;;;;;;23.50;32.40;;;;;;5153190;27;19983;-73
2021/01/22 12:06:03;;;;;;;;;;;23.70;31.70;;;;;;5155619;27;19930;-73
2021/01/22 12:08:29;;;;;;;;;;;23.90;31.30;;;;;;5152122;27;19962;-73
2021/01/22 12:10:55;;;;;;;;;;;24.20;30.70;;;;;;5155842;27;19919;-73
2021/01/22 12:13:24;;;;;;;;;;;24.40;30.60;;;;;;5134081;27;19966;-73
2021/01/22 12:15:52;;;;;;;;;;;24.50;30.00;;;;;;5138198;27;20259;-73
2021/01/22 12:18:19;;;;;;;;;;;24.70;30.10;;;;;;5152279;27;20343;-73
2021/01/22 12:20:45;;;;;;;;;;;24.60;29.90;;;;;;5138362;27;20037;-73
2021/01/22 12:23:12;;;;;;;;;;;24.50;30.40;;;;;;5151668;27;19923;-73
2021/01/22 12:25:40;;;;;;;;;;;24.50;30.50;;;;;;5137955;27;19919;-73
2021/01/22 12:28:07;;;;;;;;;;;24.50;30.20;;;;;;5137681;27;19926;-73
2021/01/22 12:30:35;;;;;;;;;;;24.50;29.90;;;;;;5134156;27;19923;-73
2021/01/22 12:33:01;;;;;;;;;;;24.50;29.80;;;;;;5170839;27;20296;-73
2021/01/22 12:35:28;;;;;;;;;;;24.60;29.80;;;;;;5138744;27;19934;-73
2021/01/22 12:37:56;;;;;;;;;;;24.40;29.70;;;;;;5137840;27;20375;-73
2021/01/22 12:40:23;;;;;;;;;;;24.30;30.30;;;;;;5152530;27;20538;-73
2021/01/22 12:42:51;;;;;;;;;;;24.30;30.20;;;;;;5138162;27;19987;-73
2021/01/22 12:45:18;;;;;;;;;;;24.20;31.00;;;;;;5151595;27;20331;-73
2021/01/22 12:47:46;;;;;;;;;;;24.20;30.70;;;;;;5155419;27;20399;-73
2021/01/22 12:50:16;;;;;;;;;;;24.20;31.20;;;;;;5134419;27;19931;-73
2021/01/22 12:52:43;;;;;;;;;;;24.50;30.00;;;;;;5137680;27;19922;-73
2021/01/22 12:55:10;;;;;;;;;;;24.30;30.00;;;;;;5130688;27;20190;-73
2021/01/22 12:57:39;;;;;;;;;;;24.10;30.20;;;;;;5134574;27;20491;-73
2021/01/22 13:00:06;;;;;;;;;;;24.40;30.30;;;;;;5132025;27;19978;-73
2021/01/22 13:02:33;;;;;;;;;;;24.60;29.90;;;;;;5134334;27;20281;-73
2021/01/22 13:05:00;;;;;;;;;;;24.50;30.00;;;;;;5134125;27;19923;-73
2021/01/22 13:07:26;;;;;;;;;;;24.40;30.00;;;;;;5131403;27;19923;-73